sensor_id;sensor_type;location;lat;lon;timestamp;P1;durP1;ratioP1;P2;durP2;ratioP2
75823;SDS011;64457;51.976;9.834;2022-12-07T00:01:06;52.07;;;21.93;;
75823;SDS011;64457;51.976;9.834;2022-12-07T00:03:35;45.37;;;19.93;;
75823;SDS011;64457;51.976;9.834;2022-12-07T00:06:05;44.97;;;19.80;;
75823;SDS011;64457;51.976;9.834;2022-12-07T00:08:35;42.13;;;20.20;;
75823;SDS011;64457;51.976;9.834;2022-12-07T00:11:03;39.93;;;18.83;;
75823;SDS011;64457;51.976;9.834;2022-12-07T00:13:33;48.40;;;20.03;;
75823;SDS011;64457;51.976;9.834;2022-12-07T00:16:01;39.57;;;18.33;;
75823;SDS011;64457;51.976;9.834;2022-12-07T00:18:32;40.37;;;18.77;;
75823;SDS011;64457;51.976;9.834;2022-12-07T00:21:01;37.60;;;18.40;;
75823;SDS011;64457;51.976;9.834;2022-12-07T00:23:29;32.40;;;16.60;;
75823;SDS011;64457;51.976;9.834;2022-12-07T00:26:02;32.83;;;15.13;;
75823;SDS011;64457;51.976;9.834;2022-12-07T00:28:31;27.97;;;14.53;;
75823;SDS011;64457;51.976;9.834;2022-12-07T00:31:01;30.73;;;15.50;;
75823;SDS011;64457;51.976;9.834;2022-12-07T00:33:32;30.43;;;15.60;;
75823;SDS011;64457;51.976;9.834;2022-12-07T00:36:00;29.67;;;16.23;;
75823;SDS011;64457;51.976;9.834;2022-12-07T00:38:30;30.30;;;16.10;;
75823;SDS011;64457;51.976;9.834;2022-12-07T00:41:00;25.90;;;14.60;;
75823;SDS011;64457;51.976;9.834;2022-12-07T00:43:30;27.80;;;15.10;;
75823;SDS011;64457;51.976;9.834;2022-12-07T00:45:58;31.50;;;15.10;;
75823;SDS011;64457;51.976;9.834;2022-12-07T00:48:26;28.80;;;14.40;;
75823;SDS011;64457;51.976;9.834;2022-12-07T00:50:55;31.60;;;14.80;;
75823;SDS011;64457;51.976;9.834;2022-12-07T00:53:23;26.87;;;14.73;;
75823;SDS011;64457;51.976;9.834;2022-12-07T00:55:51;28.63;;;14.73;;
75823;SDS011;64457;51.976;9.834;2022-12-07T00:58:19;28.53;;;15.03;;
75823;SDS011;64457;51.976;9.834;2022-12-07T01:00:46;25.37;;;15.00;;
75823;SDS011;64457;51.976;9.834;2022-12-07T01:03:14;28.20;;;14.87;;
75823;SDS011;64457;51.976;9.834;2022-12-07T01:05:48;28.83;;;14.43;;
75823;SDS011;64457;51.976;9.834;2022-12-07T01:08:18;28.67;;;15.40;;
75823;SDS011;64457;51.976;9.834;2022-12-07T01:10:48;32.20;;;14.90;;
75823;SDS011;64457;51.976;9.834;2022-12-07T01:13:16;30.50;;;15.50;;
75823;SDS011;64457;51.976;9.834;2022-12-07T01:15:45;26.40;;;15.03;;
75823;SDS011;64457;51.976;9.834;2022-12-07T01:18:12;25.47;;;14.17;;
75823;SDS011;64457;51.976;9.834;2022-12-07T01:20:40;25.63;;;14.70;;
75823;SDS011;64457;51.976;9.834;2022-12-07T01:23:07;27.23;;;14.50;;
75823;SDS011;64457;51.976;9.834;2022-12-07T01:25:36;25.37;;;13.87;;
75823;SDS011;64457;51.976;9.834;2022-12-07T01:28:04;27.10;;;15.13;;
75823;SDS011;64457;51.976;9.834;2022-12-07T01:30:31;29.43;;;14.90;;
75823;SDS011;64457;51.976;9.834;2022-12-07T01:32:59;23.10;;;13.10;;
75823;SDS011;64457;51.976;9.834;2022-12-07T01:35:26;22.83;;;12.70;;
75823;SDS011;64457;51.976;9.834;2022-12-07T01:37:54;25.03;;;14.10;;
75823;SDS011;64457;51.976;9.834;2022-12-07T01:40:21;25.30;;;14.53;;
75823;SDS011;64457;51.976;9.834;2022-12-07T01:42:51;23.13;;;13.47;;
75823;SDS011;64457;51.976;9.834;2022-12-07T01:45:33;23.43;;;13.40;;
75823;SDS011;64457;51.976;9.834;2022-12-07T01:48:07;21.40;;;12.27;;
75823;SDS011;64457;51.976;9.834;2022-12-07T01:50:37;20.93;;;12.10;;
75823;SDS011;64457;51.976;9.834;2022-12-07T01:53:07;19.70;;;11.63;;
75823;SDS011;64457;51.976;9.834;2022-12-07T01:55:37;20.23;;;11.40;;
75823;SDS011;64457;51.976;9.834;2022-12-07T01:58:10;19.53;;;11.30;;
75823;SDS011;64457;51.976;9.834;2022-12-07T02:00:39;19.07;;;11.30;;
75823;SDS011;64457;51.976;9.834;2022-12-07T02:03:09;20.10;;;12.00;;
75823;SDS011;64457;51.976;9.834;2022-12-07T02:05:42;22.73;;;13.10;;
75823;SDS011;64457;51.976;9.834;2022-12-07T02:08:10;23.63;;;13.30;;
75823;SDS011;64457;51.976;9.834;2022-12-07T02:10:40;22.33;;;11.93;;
75823;SDS011;64457;51.976;9.834;2022-12-07T02:13:08;19.77;;;11.70;;
75823;SDS011;64457;51.976;9.834;2022-12-07T02:18:48;24.80;;;12.40;;
75823;SDS011;64457;51.976;9.834;2022-12-07T02:21:32;22.97;;;13.00;;
75823;SDS011;64457;51.976;9.834;2022-12-07T02:24:14;25.57;;;14.03;;
75823;SDS011;64457;51.976;9.834;2022-12-07T02:27:00;24.20;;;13.20;;
75823;SDS011;64457;51.976;9.834;2022-12-07T02:29:53;27.27;;;14.23;;
75823;SDS011;64457;51.976;9.834;2022-12-07T02:32:26;26.90;;;13.80;;
75823;SDS011;64457;51.976;9.834;2022-12-07T02:35:04;28.60;;;14.00;;
75823;SDS011;64457;51.976;9.834;2022-12-07T02:37:37;29.47;;;15.03;;
75823;SDS011;64457;51.976;9.834;2022-12-07T02:40:11;30.17;;;15.00;;
75823;SDS011;64457;51.976;9.834;2022-12-07T02:42:46;28.20;;;14.47;;
75823;SDS011;64457;51.976;9.834;2022-12-07T02:45:20;27.47;;;14.30;;
75823;SDS011;64457;51.976;9.834;2022-12-07T02:47:51;27.73;;;14.30;;
75823;SDS011;64457;51.976;9.834;2022-12-07T02:50:24;27.10;;;14.20;;
75823;SDS011;64457;51.976;9.834;2022-12-07T02:52:51;27.27;;;13.63;;
75823;SDS011;64457;51.976;9.834;2022-12-07T02:55:19;27.67;;;14.57;;
75823;SDS011;64457;51.976;9.834;2022-12-07T02:57:59;27.80;;;14.87;;
75823;SDS011;64457;51.976;9.834;2022-12-07T03:00:55;29.20;;;14.23;;
75823;SDS011;64457;51.976;9.834;2022-12-07T03:03:31;25.10;;;14.00;;
75823;SDS011;64457;51.976;9.834;2022-12-07T03:06:05;27.23;;;15.10;;
75823;SDS011;64457;51.976;9.834;2022-12-07T03:08:43;26.00;;;13.83;;
75823;SDS011;64457;51.976;9.834;2022-12-07T03:11:21;32.23;;;16.00;;
75823;SDS011;64457;51.976;9.834;2022-12-07T03:13:59;28.80;;;15.10;;
75823;SDS011;64457;51.976;9.834;2022-12-07T03:16:37;26.87;;;14.23;;
75823;SDS011;64457;51.976;9.834;2022-12-07T03:19:10;29.10;;;15.20;;
75823;SDS011;64457;51.976;9.834;2022-12-07T03:21:43;26.60;;;14.60;;
75823;SDS011;64457;51.976;9.834;2022-12-07T03:24:17;34.10;;;15.93;;
75823;SDS011;64457;51.976;9.834;2022-12-07T03:26:48;26.93;;;14.40;;
75823;SDS011;64457;51.976;9.834;2022-12-07T03:29:22;28.00;;;14.77;;
75823;SDS011;64457;51.976;9.834;2022-12-07T03:31:56;26.90;;;14.67;;
75823;SDS011;64457;51.976;9.834;2022-12-07T03:34:30;29.53;;;14.60;;
75823;SDS011;64457;51.976;9.834;2022-12-07T03:37:02;28.37;;;15.10;;
75823;SDS011;64457;51.976;9.834;2022-12-07T03:39:36;28.10;;;14.50;;
75823;SDS011;64457;51.976;9.834;2022-12-07T03:42:11;27.47;;;14.40;;
75823;SDS011;64457;51.976;9.834;2022-12-07T03:44:39;26.43;;;14.17;;
75823;SDS011;64457;51.976;9.834;2022-12-07T03:47:11;30.07;;;12.93;;
75823;SDS011;64457;51.976;9.834;2022-12-07T03:49:45;25.30;;;13.37;;
75823;SDS011;64457;51.976;9.834;2022-12-07T03:52:18;28.30;;;14.60;;
75823;SDS011;64457;51.976;9.834;2022-12-07T03:54:54;25.60;;;13.20;;
75823;SDS011;64457;51.976;9.834;2022-12-07T03:57:27;29.67;;;13.20;;
75823;SDS011;64457;51.976;9.834;2022-12-07T03:59:57;28.37;;;13.60;;
75823;SDS011;64457;51.976;9.834;2022-12-07T04:02:26;24.77;;;13.53;;
75823;SDS011;64457;51.976;9.834;2022-12-07T04:04:55;26.80;;;13.23;;
75823;SDS011;64457;51.976;9.834;2022-12-07T04:07:23;25.47;;;13.60;;
75823;SDS011;64457;51.976;9.834;2022-12-07T04:09:50;25.90;;;13.67;;
75823;SDS011;64457;51.976;9.834;2022-12-07T04:12:20;26.03;;;13.10;;
75823;SDS011;64457;51.976;9.834;2022-12-07T04:14:47;24.47;;;11.77;;
75823;SDS011;64457;51.976;9.834;2022-12-07T04:17:15;22.83;;;12.23;;
75823;SDS011;64457;51.976;9.834;2022-12-07T04:19:44;27.93;;;12.37;;
75823;SDS011;64457;51.976;9.834;2022-12-07T04:22:12;24.87;;;12.60;;
75823;SDS011;64457;51.976;9.834;2022-12-07T04:24:39;23.37;;;11.30;;
75823;SDS011;64457;51.976;9.834;2022-12-07T04:27:07;24.43;;;11.83;;
75823;SDS011;64457;51.976;9.834;2022-12-07T04:29:34;26.10;;;12.70;;
75823;SDS011;64457;51.976;9.834;2022-12-07T04:32:02;24.63;;;11.93;;
75823;SDS011;64457;51.976;9.834;2022-12-07T04:34:30;22.93;;;10.70;;
75823;SDS011;64457;51.976;9.834;2022-12-07T04:36:59;27.67;;;11.40;;
75823;SDS011;64457;51.976;9.834;2022-12-07T04:39:27;25.53;;;10.87;;
75823;SDS011;64457;51.976;9.834;2022-12-07T04:41:57;23.60;;;11.40;;
75823;SDS011;64457;51.976;9.834;2022-12-07T04:44:25;25.50;;;10.93;;
75823;SDS011;64457;51.976;9.834;2022-12-07T04:46:54;24.70;;;10.43;;
75823;SDS011;64457;51.976;9.834;2022-12-07T04:49:22;20.30;;;9.43;;
75823;SDS011;64457;51.976;9.834;2022-12-07T04:51:50;18.23;;;9.63;;
75823;SDS011;64457;51.976;9.834;2022-12-07T04:54:20;18.97;;;8.87;;
75823;SDS011;64457;51.976;9.834;2022-12-07T04:56:47;21.20;;;9.80;;
75823;SDS011;64457;51.976;9.834;2022-12-07T04:59:16;19.00;;;9.70;;
75823;SDS011;64457;51.976;9.834;2022-12-07T05:01:44;15.73;;;7.87;;
75823;SDS011;64457;51.976;9.834;2022-12-07T05:04:11;20.97;;;9.10;;
75823;SDS011;64457;51.976;9.834;2022-12-07T05:06:41;20.90;;;8.63;;
75823;SDS011;64457;51.976;9.834;2022-12-07T05:09:08;17.80;;;8.63;;
75823;SDS011;64457;51.976;9.834;2022-12-07T05:11:38;17.70;;;8.27;;
75823;SDS011;64457;51.976;9.834;2022-12-07T05:14:06;18.87;;;8.97;;
75823;SDS011;64457;51.976;9.834;2022-12-07T05:16:37;17.63;;;8.27;;
75823;SDS011;64457;51.976;9.834;2022-12-07T05:19:05;15.10;;;8.03;;
75823;SDS011;64457;51.976;9.834;2022-12-07T05:21:34;20.80;;;8.87;;
75823;SDS011;64457;51.976;9.834;2022-12-07T05:24:02;18.70;;;9.23;;
75823;SDS011;64457;51.976;9.834;2022-12-07T05:26:31;18.43;;;8.80;;
75823;SDS011;64457;51.976;9.834;2022-12-07T05:29:01;30.53;;;8.57;;
75823;SDS011;64457;51.976;9.834;2022-12-07T05:31:28;16.20;;;8.03;;
75823;SDS011;64457;51.976;9.834;2022-12-07T05:33:56;20.63;;;8.27;;
75823;SDS011;64457;51.976;9.834;2022-12-07T05:36:24;19.70;;;9.27;;
75823;SDS011;64457;51.976;9.834;2022-12-07T05:38:53;22.20;;;8.27;;
75823;SDS011;64457;51.976;9.834;2022-12-07T05:41:21;19.80;;;8.43;;
75823;SDS011;64457;51.976;9.834;2022-12-07T05:44:07;16.73;;;7.90;;
75823;SDS011;64457;51.976;9.834;2022-12-07T05:46:35;19.07;;;8.50;;
75823;SDS011;64457;51.976;9.834;2022-12-07T05:49:04;17.43;;;8.17;;
75823;SDS011;64457;51.976;9.834;2022-12-07T05:51:31;19.63;;;7.83;;
75823;SDS011;64457;51.976;9.834;2022-12-07T05:53:59;20.47;;;8.63;;
75823;SDS011;64457;51.976;9.834;2022-12-07T05:56:27;21.43;;;8.03;;
75823;SDS011;64457;51.976;9.834;2022-12-07T05:58:54;16.13;;;8.40;;
75823;SDS011;64457;51.976;9.834;2022-12-07T06:01:41;27.37;;;7.80;;
75823;SDS011;64457;51.976;9.834;2022-12-07T06:04:09;17.53;;;7.93;;
75823;SDS011;64457;51.976;9.834;2022-12-07T06:06:37;19.50;;;8.13;;
75823;SDS011;64457;51.976;9.834;2022-12-07T06:09:04;16.43;;;7.57;;
75823;SDS011;64457;51.976;9.834;2022-12-07T06:11:32;15.00;;;7.80;;
75823;SDS011;64457;51.976;9.834;2022-12-07T06:14:16;15.40;;;7.27;;
75823;SDS011;64457;51.976;9.834;2022-12-07T06:16:46;17.90;;;7.17;;
75823;SDS011;64457;51.976;9.834;2022-12-07T06:19:13;15.33;;;6.90;;
75823;SDS011;64457;51.976;9.834;2022-12-07T06:21:41;14.40;;;6.80;;
75823;SDS011;64457;51.976;9.834;2022-12-07T06:24:10;17.33;;;7.70;;
75823;SDS011;64457;51.976;9.834;2022-12-07T06:26:38;14.90;;;7.80;;
75823;SDS011;64457;51.976;9.834;2022-12-07T06:29:06;17.40;;;7.83;;
75823;SDS011;64457;51.976;9.834;2022-12-07T06:31:34;20.03;;;7.37;;
75823;SDS011;64457;51.976;9.834;2022-12-07T06:34:04;17.33;;;7.87;;
75823;SDS011;64457;51.976;9.834;2022-12-07T06:36:34;23.53;;;7.00;;
75823;SDS011;64457;51.976;9.834;2022-12-07T06:39:02;16.07;;;7.47;;
75823;SDS011;64457;51.976;9.834;2022-12-07T06:41:30;23.23;;;8.80;;
75823;SDS011;64457;51.976;9.834;2022-12-07T06:43:58;17.90;;;8.90;;
75823;SDS011;64457;51.976;9.834;2022-12-07T06:46:26;18.40;;;6.90;;
75823;SDS011;64457;51.976;9.834;2022-12-07T06:48:54;16.23;;;7.23;;
75823;SDS011;64457;51.976;9.834;2022-12-07T06:51:23;18.80;;;10.70;;
75823;SDS011;64457;51.976;9.834;2022-12-07T06:53:51;18.93;;;9.00;;
75823;SDS011;64457;51.976;9.834;2022-12-07T06:56:18;20.13;;;7.87;;
75823;SDS011;64457;51.976;9.834;2022-12-07T06:58:46;19.40;;;8.40;;
75823;SDS011;64457;51.976;9.834;2022-12-07T07:01:14;10.63;;;5.90;;
75823;SDS011;64457;51.976;9.834;2022-12-07T07:03:44;14.57;;;7.17;;
75823;SDS011;64457;51.976;9.834;2022-12-07T07:06:12;12.63;;;6.10;;
75823;SDS011;64457;51.976;9.834;2022-12-07T07:08:42;16.27;;;8.17;;
75823;SDS011;64457;51.976;9.834;2022-12-07T07:11:09;15.90;;;7.30;;
75823;SDS011;64457;51.976;9.834;2022-12-07T07:13:37;14.83;;;6.33;;
75823;SDS011;64457;51.976;9.834;2022-12-07T07:16:05;14.23;;;5.90;;
75823;SDS011;64457;51.976;9.834;2022-12-07T07:18:34;13.07;;;6.67;;
75823;SDS011;64457;51.976;9.834;2022-12-07T07:21:02;13.80;;;6.70;;
75823;SDS011;64457;51.976;9.834;2022-12-07T07:23:31;12.37;;;6.30;;
75823;SDS011;64457;51.976;9.834;2022-12-07T07:26:00;13.60;;;5.93;;
75823;SDS011;64457;51.976;9.834;2022-12-07T07:28:27;10.30;;;6.20;;
75823;SDS011;64457;51.976;9.834;2022-12-07T07:30:55;10.10;;;5.67;;
75823;SDS011;64457;51.976;9.834;2022-12-07T07:33:22;11.23;;;5.90;;
75823;SDS011;64457;51.976;9.834;2022-12-07T07:35:50;10.10;;;5.30;;
75823;SDS011;64457;51.976;9.834;2022-12-07T07:38:18;11.93;;;5.73;;
75823;SDS011;64457;51.976;9.834;2022-12-07T07:40:45;17.70;;;5.40;;
75823;SDS011;64457;51.976;9.834;2022-12-07T07:43:15;10.60;;;5.70;;
75823;SDS011;64457;51.976;9.834;2022-12-07T07:45:42;17.37;;;5.50;;
75823;SDS011;64457;51.976;9.834;2022-12-07T07:48:11;17.53;;;4.63;;
75823;SDS011;64457;51.976;9.834;2022-12-07T07:50:38;9.80;;;5.30;;
75823;SDS011;64457;51.976;9.834;2022-12-07T07:53:06;9.70;;;5.27;;
75823;SDS011;64457;51.976;9.834;2022-12-07T07:55:34;14.33;;;5.80;;
75823;SDS011;64457;51.976;9.834;2022-12-07T07:58:01;13.20;;;4.50;;
75823;SDS011;64457;51.976;9.834;2022-12-07T08:00:30;9.83;;;5.00;;
75823;SDS011;64457;51.976;9.834;2022-12-07T08:02:57;10.93;;;5.43;;
75823;SDS011;64457;51.976;9.834;2022-12-07T08:05:25;9.70;;;4.57;;
75823;SDS011;64457;51.976;9.834;2022-12-07T08:07:53;7.57;;;4.77;;
75823;SDS011;64457;51.976;9.834;2022-12-07T08:10:20;7.50;;;4.30;;
75823;SDS011;64457;51.976;9.834;2022-12-07T08:12:48;13.47;;;4.27;;
75823;SDS011;64457;51.976;9.834;2022-12-07T08:15:35;7.20;;;4.30;;
75823;SDS011;64457;51.976;9.834;2022-12-07T08:18:04;8.57;;;4.33;;
75823;SDS011;64457;51.976;9.834;2022-12-07T08:20:33;8.93;;;3.90;;
75823;SDS011;64457;51.976;9.834;2022-12-07T08:23:02;8.00;;;3.80;;
75823;SDS011;64457;51.976;9.834;2022-12-07T08:25:31;11.73;;;4.20;;
75823;SDS011;64457;51.976;9.834;2022-12-07T08:27:59;12.80;;;3.60;;
75823;SDS011;64457;51.976;9.834;2022-12-07T08:30:26;7.97;;;3.70;;
75823;SDS011;64457;51.976;9.834;2022-12-07T08:32:56;7.43;;;3.50;;
75823;SDS011;64457;51.976;9.834;2022-12-07T08:35:24;9.63;;;4.30;;
75823;SDS011;64457;51.976;9.834;2022-12-07T08:37:51;12.13;;;5.20;;
75823;SDS011;64457;51.976;9.834;2022-12-07T08:40:19;10.93;;;4.43;;
75823;SDS011;64457;51.976;9.834;2022-12-07T08:42:48;9.03;;;4.30;;
75823;SDS011;64457;51.976;9.834;2022-12-07T08:45:16;8.87;;;4.03;;
75823;SDS011;64457;51.976;9.834;2022-12-07T08:47:45;11.43;;;3.83;;
75823;SDS011;64457;51.976;9.834;2022-12-07T08:50:18;7.30;;;3.73;;
75823;SDS011;64457;51.976;9.834;2022-12-07T08:52:47;5.50;;;3.47;;
75823;SDS011;64457;51.976;9.834;2022-12-07T08:55:18;9.23;;;4.07;;
75823;SDS011;64457;51.976;9.834;2022-12-07T08:57:46;13.50;;;4.07;;
75823;SDS011;64457;51.976;9.834;2022-12-07T09:00:14;10.70;;;4.27;;
75823;SDS011;64457;51.976;9.834;2022-12-07T09:02:43;9.77;;;4.57;;
75823;SDS011;64457;51.976;9.834;2022-12-07T09:05:11;15.20;;;3.90;;
75823;SDS011;64457;51.976;9.834;2022-12-07T09:07:41;10.17;;;4.27;;
75823;SDS011;64457;51.976;9.834;2022-12-07T09:10:10;9.67;;;4.10;;
75823;SDS011;64457;51.976;9.834;2022-12-07T09:12:38;7.60;;;3.70;;
75823;SDS011;64457;51.976;9.834;2022-12-07T09:15:06;13.13;;;4.33;;
75823;SDS011;64457;51.976;9.834;2022-12-07T09:17:35;9.17;;;3.40;;
75823;SDS011;64457;51.976;9.834;2022-12-07T09:20:03;8.90;;;3.97;;
75823;SDS011;64457;51.976;9.834;2022-12-07T09:22:32;8.10;;;3.90;;
75823;SDS011;64457;51.976;9.834;2022-12-07T09:25:02;7.57;;;4.13;;
75823;SDS011;64457;51.976;9.834;2022-12-07T09:27:31;8.50;;;4.40;;
75823;SDS011;64457;51.976;9.834;2022-12-07T09:29:59;7.73;;;3.90;;
75823;SDS011;64457;51.976;9.834;2022-12-07T09:32:26;10.80;;;4.03;;
75823;SDS011;64457;51.976;9.834;2022-12-07T09:34:54;8.57;;;4.23;;
75823;SDS011;64457;51.976;9.834;2022-12-07T09:37:21;11.20;;;4.37;;
75823;SDS011;64457;51.976;9.834;2022-12-07T09:39:49;9.20;;;4.40;;
75823;SDS011;64457;51.976;9.834;2022-12-07T09:42:26;8.53;;;4.20;;
75823;SDS011;64457;51.976;9.834;2022-12-07T09:44:56;10.80;;;4.80;;
75823;SDS011;64457;51.976;9.834;2022-12-07T09:47:25;8.90;;;3.80;;
75823;SDS011;64457;51.976;9.834;2022-12-07T09:49:54;11.23;;;4.23;;
75823;SDS011;64457;51.976;9.834;2022-12-07T09:52:27;7.83;;;3.97;;
75823;SDS011;64457;51.976;9.834;2022-12-07T09:54:55;8.03;;;4.23;;
75823;SDS011;64457;51.976;9.834;2022-12-07T09:57:27;8.20;;;3.50;;
75823;SDS011;64457;51.976;9.834;2022-12-07T10:00:00;7.83;;;3.23;;
75823;SDS011;64457;51.976;9.834;2022-12-07T10:02:35;8.30;;;3.30;;
75823;SDS011;64457;51.976;9.834;2022-12-07T10:05:06;8.60;;;3.60;;
75823;SDS011;64457;51.976;9.834;2022-12-07T10:07:39;7.37;;;3.50;;
75823;SDS011;64457;51.976;9.834;2022-12-07T10:10:10;11.03;;;3.67;;
75823;SDS011;64457;51.976;9.834;2022-12-07T10:12:53;7.87;;;3.73;;
75823;SDS011;64457;51.976;9.834;2022-12-07T10:15:38;8.63;;;3.80;;
75823;SDS011;64457;51.976;9.834;2022-12-07T10:18:17;8.80;;;4.10;;
75823;SDS011;64457;51.976;9.834;2022-12-07T10:20:48;7.40;;;3.43;;
75823;SDS011;64457;51.976;9.834;2022-12-07T10:23:16;7.57;;;3.23;;
75823;SDS011;64457;51.976;9.834;2022-12-07T10:25:45;5.27;;;2.70;;
75823;SDS011;64457;51.976;9.834;2022-12-07T10:28:16;5.97;;;3.00;;
75823;SDS011;64457;51.976;9.834;2022-12-07T10:30:46;6.13;;;2.60;;
75823;SDS011;64457;51.976;9.834;2022-12-07T10:33:32;7.07;;;3.20;;
75823;SDS011;64457;51.976;9.834;2022-12-07T10:36:15;6.13;;;3.10;;
75823;SDS011;64457;51.976;9.834;2022-12-07T10:38:50;8.13;;;3.43;;
75823;SDS011;64457;51.976;9.834;2022-12-07T10:41:19;7.40;;;2.93;;
75823;SDS011;64457;51.976;9.834;2022-12-07T10:43:50;5.00;;;3.10;;
75823;SDS011;64457;51.976;9.834;2022-12-07T10:52:55;7.70;;;3.63;;
75823;SDS011;64457;51.976;9.834;2022-12-07T10:55:53;6.03;;;3.20;;
75823;SDS011;64457;51.976;9.834;2022-12-07T10:58:44;9.90;;;3.90;;
75823;SDS011;64457;51.976;9.834;2022-12-07T11:01:27;6.70;;;3.43;;
75823;SDS011;64457;51.976;9.834;2022-12-07T11:04:07;8.07;;;3.67;;
75823;SDS011;64457;51.976;9.834;2022-12-07T11:06:48;8.00;;;3.80;;
75823;SDS011;64457;51.976;9.834;2022-12-07T11:09:37;11.80;;;4.47;;
75823;SDS011;64457;51.976;9.834;2022-12-07T11:12:30;9.40;;;4.10;;
75823;SDS011;64457;51.976;9.834;2022-12-07T11:15:15;8.13;;;4.07;;
75823;SDS011;64457;51.976;9.834;2022-12-07T11:17:48;9.53;;;3.73;;
75823;SDS011;64457;51.976;9.834;2022-12-07T11:20:29;14.03;;;4.10;;
75823;SDS011;64457;51.976;9.834;2022-12-07T11:23:10;8.10;;;3.30;;
75823;SDS011;64457;51.976;9.834;2022-12-07T11:25:52;6.13;;;3.37;;
75823;SDS011;64457;51.976;9.834;2022-12-07T11:28:28;9.23;;;3.70;;
75823;SDS011;64457;51.976;9.834;2022-12-07T11:31:14;6.67;;;3.57;;
75823;SDS011;64457;51.976;9.834;2022-12-07T11:33:52;8.63;;;3.10;;
75823;SDS011;64457;51.976;9.834;2022-12-07T11:36:31;8.90;;;3.50;;
75823;SDS011;64457;51.976;9.834;2022-12-07T11:39:06;7.00;;;2.63;;
75823;SDS011;64457;51.976;9.834;2022-12-07T11:41:46;8.43;;;3.13;;
75823;SDS011;64457;51.976;9.834;2022-12-07T11:44:19;10.70;;;4.07;;
75823;SDS011;64457;51.976;9.834;2022-12-07T11:47:00;7.70;;;3.20;;
75823;SDS011;64457;51.976;9.834;2022-12-07T11:49:37;9.60;;;3.50;;
75823;SDS011;64457;51.976;9.834;2022-12-07T11:52:13;7.70;;;3.20;;
75823;SDS011;64457;51.976;9.834;2022-12-07T11:54:49;7.77;;;3.07;;
75823;SDS011;64457;51.976;9.834;2022-12-07T11:57:20;7.03;;;2.77;;
75823;SDS011;64457;51.976;9.834;2022-12-07T11:59:57;14.50;;;2.90;;
75823;SDS011;64457;51.976;9.834;2022-12-07T12:02:34;8.23;;;3.27;;
75823;SDS011;64457;51.976;9.834;2022-12-07T12:05:12;7.63;;;2.97;;
75823;SDS011;64457;51.976;9.834;2022-12-07T12:07:44;12.00;;;3.10;;
75823;SDS011;64457;51.976;9.834;2022-12-07T12:10:16;7.27;;;2.80;;
75823;SDS011;64457;51.976;9.834;2022-12-07T12:13:02;7.87;;;2.80;;
75823;SDS011;64457;51.976;9.834;2022-12-07T12:15:51;6.60;;;2.40;;
75823;SDS011;64457;51.976;9.834;2022-12-07T12:19:01;7.47;;;2.53;;
75823;SDS011;64457;51.976;9.834;2022-12-07T12:21:58;6.80;;;2.60;;
75823;SDS011;64457;51.976;9.834;2022-12-07T12:24:34;9.20;;;2.57;;
75823;SDS011;64457;51.976;9.834;2022-12-07T12:27:06;8.03;;;2.43;;
75823;SDS011;64457;51.976;9.834;2022-12-07T12:29:37;4.53;;;2.23;;
75823;SDS011;64457;51.976;9.834;2022-12-07T12:32:13;6.27;;;2.20;;
75823;SDS011;64457;51.976;9.834;2022-12-07T12:35:02;7.40;;;2.27;;
75823;SDS011;64457;51.976;9.834;2022-12-07T12:37:53;7.10;;;2.17;;
75823;SDS011;64457;51.976;9.834;2022-12-07T12:40:41;6.83;;;2.80;;
75823;SDS011;64457;51.976;9.834;2022-12-07T12:58:44;5.83;;;2.60;;
75823;SDS011;64457;51.976;9.834;2022-12-07T13:04:18;7.30;;;2.70;;
75823;SDS011;64457;51.976;9.834;2022-12-07T13:07:10;12.40;;;2.50;;
75823;SDS011;64457;51.976;9.834;2022-12-07T13:09:43;12.03;;;2.70;;
75823;SDS011;64457;51.976;9.834;2022-12-07T13:12:13;8.50;;;3.27;;
75823;SDS011;64457;51.976;9.834;2022-12-07T13:14:55;16.87;;;2.90;;
75823;SDS011;64457;51.976;9.834;2022-12-07T13:20:49;10.33;;;2.13;;
75823;SDS011;64457;51.976;9.834;2022-12-07T13:23:26;6.17;;;2.10;;
75823;SDS011;64457;51.976;9.834;2022-12-07T13:26:03;13.43;;;2.77;;
75823;SDS011;64457;51.976;9.834;2022-12-07T13:28:41;18.30;;;2.83;;
75823;SDS011;64457;51.976;9.834;2022-12-07T13:31:12;8.80;;;2.10;;
75823;SDS011;64457;51.976;9.834;2022-12-07T13:33:57;7.60;;;2.63;;
75823;SDS011;64457;51.976;9.834;2022-12-07T13:36:26;5.73;;;2.30;;
75823;SDS011;64457;51.976;9.834;2022-12-07T13:39:11;14.90;;;3.87;;
75823;SDS011;64457;51.976;9.834;2022-12-07T13:41:50;15.77;;;2.90;;
75823;SDS011;64457;51.976;9.834;2022-12-07T13:44:18;6.03;;;2.53;;
75823;SDS011;64457;51.976;9.834;2022-12-07T13:46:48;12.30;;;3.30;;
75823;SDS011;64457;51.976;9.834;2022-12-07T13:49:27;9.60;;;2.93;;
75823;SDS011;64457;51.976;9.834;2022-12-07T13:52:08;9.57;;;2.53;;
75823;SDS011;64457;51.976;9.834;2022-12-07T13:54:46;8.50;;;2.50;;
75823;SDS011;64457;51.976;9.834;2022-12-07T13:57:18;12.80;;;2.50;;
75823;SDS011;64457;51.976;9.834;2022-12-07T13:59:45;11.70;;;2.83;;
75823;SDS011;64457;51.976;9.834;2022-12-07T14:02:18;6.00;;;2.33;;
75823;SDS011;64457;51.976;9.834;2022-12-07T14:04:49;5.77;;;1.93;;
75823;SDS011;64457;51.976;9.834;2022-12-07T14:07:18;6.17;;;1.80;;
75823;SDS011;64457;51.976;9.834;2022-12-07T14:09:53;5.80;;;2.17;;
75823;SDS011;64457;51.976;9.834;2022-12-07T14:12:25;8.00;;;2.10;;
75823;SDS011;64457;51.976;9.834;2022-12-07T14:14:55;9.87;;;3.07;;
75823;SDS011;64457;51.976;9.834;2022-12-07T14:17:25;7.40;;;2.37;;
75823;SDS011;64457;51.976;9.834;2022-12-07T14:19:54;13.70;;;3.10;;
75823;SDS011;64457;51.976;9.834;2022-12-07T14:22:29;6.60;;;2.50;;
75823;SDS011;64457;51.976;9.834;2022-12-07T14:25:01;7.93;;;2.93;;
75823;SDS011;64457;51.976;9.834;2022-12-07T14:27:50;4.40;;;1.90;;
75823;SDS011;64457;51.976;9.834;2022-12-07T14:30:23;13.00;;;3.90;;
75823;SDS011;64457;51.976;9.834;2022-12-07T14:32:54;6.87;;;2.60;;
75823;SDS011;64457;51.976;9.834;2022-12-07T14:35:24;6.60;;;2.73;;
75823;SDS011;64457;51.976;9.834;2022-12-07T14:37:52;7.80;;;2.60;;
75823;SDS011;64457;51.976;9.834;2022-12-07T14:40:20;10.37;;;3.13;;
75823;SDS011;64457;51.976;9.834;2022-12-07T14:42:52;8.63;;;2.13;;
75823;SDS011;64457;51.976;9.834;2022-12-07T14:45:23;5.97;;;2.00;;
75823;SDS011;64457;51.976;9.834;2022-12-07T14:47:50;5.50;;;2.40;;
75823;SDS011;64457;51.976;9.834;2022-12-07T14:50:19;12.97;;;2.47;;
75823;SDS011;64457;51.976;9.834;2022-12-07T14:52:51;5.97;;;1.73;;
75823;SDS011;64457;51.976;9.834;2022-12-07T14:55:23;6.67;;;2.07;;
75823;SDS011;64457;51.976;9.834;2022-12-07T14:57:55;7.80;;;2.13;;
75823;SDS011;64457;51.976;9.834;2022-12-07T15:00:24;6.23;;;1.70;;
75823;SDS011;64457;51.976;9.834;2022-12-07T15:02:54;12.83;;;2.20;;
75823;SDS011;64457;51.976;9.834;2022-12-07T15:05:23;4.83;;;2.23;;
75823;SDS011;64457;51.976;9.834;2022-12-07T15:07:50;6.97;;;2.07;;
75823;SDS011;64457;51.976;9.834;2022-12-07T15:10:19;6.00;;;2.00;;
75823;SDS011;64457;51.976;9.834;2022-12-07T15:12:49;14.03;;;2.37;;
75823;SDS011;64457;51.976;9.834;2022-12-07T15:15:19;10.30;;;2.00;;
75823;SDS011;64457;51.976;9.834;2022-12-07T15:17:46;11.57;;;1.60;;
75823;SDS011;64457;51.976;9.834;2022-12-07T15:20:16;6.37;;;1.60;;
75823;SDS011;64457;51.976;9.834;2022-12-07T15:22:44;9.00;;;2.20;;
75823;SDS011;64457;51.976;9.834;2022-12-07T15:25:12;5.10;;;1.90;;
75823;SDS011;64457;51.976;9.834;2022-12-07T15:27:40;10.93;;;1.90;;
75823;SDS011;64457;51.976;9.834;2022-12-07T15:30:07;7.33;;;1.90;;
75823;SDS011;64457;51.976;9.834;2022-12-07T15:32:37;10.43;;;2.13;;
75823;SDS011;64457;51.976;9.834;2022-12-07T15:35:04;7.00;;;1.80;;